Time;durP1;ratioP1;P1;durP2;ratioP2;P2;SDS_P1;SDS_P2;PMS_P1;PMS_P2;Temp;Humidity;BMP_temperature;BMP_pressure;BME280_temperature;BME280_humidity;BME280_pressure;Samples;Min_cycle;Max_cycle;Signal;HPM_P1;HPM_P2
2022/08/14 00:01:15;;;;;;;9.20;6.30;;;;;;;;;;5053359;28;20111;-70
2022/08/14 00:03:41;;;;;;;8.48;6.20;;;;;;;;;;5053471;28;20017;-71
2022/08/14 00:06:08;;;;;;;9.98;5.88;;;;;;;;;;5035298;28;20082;-70
2022/08/14 00:08:34;;;;;;;7.65;6.28;;;;;;;;;;5053166;28;20498;-71
2022/08/14 00:11:00;;;;;;;10.50;6.50;;;;;;;;;;5053335;28;20414;-70
2022/08/14 00:13:29;;;;;;;8.02;6.00;;;;;;;;;;5053300;28;20358;-70
2022/08/14 00:15:56;;;;;;;10.57;6.45;;;;;;;;;;5034794;28;20063;-70
2022/08/14 00:18:24;;;;;;;9.60;6.30;;;;;;;;;;5053051;28;20036;-70
2022/08/14 00:20:51;;;;;;;9.52;7.30;;;;;;;;;;5053214;28;20075;-70
2022/08/14 00:23:17;;;;;;;12.15;7.95;;;;;;;;;;5053288;28;20137;-70
2022/08/14 00:25:45;;;;;;;10.98;8.93;;;;;;;;;;5053241;28;20105;-69
2022/08/14 00:28:13;;;;;;;10.27;8.88;;;;;;;;;;5052919;28;20033;-70
2022/08/14 00:30:40;;;;;;;13.02;9.25;;;;;;;;;;5035621;28;20389;-70
2022/08/14 00:33:06;;;;;;;14.27;8.75;;;;;;;;;;5052874;28;20029;-71
2022/08/14 00:35:32;;;;;;;14.35;9.65;;;;;;;;;;5052910;28;20057;-70
2022/08/14 00:37:58;;;;;;;13.57;9.40;;;;;;;;;;5052832;28;20025;-70
2022/08/14 00:40:24;;;;;;;12.02;9.63;;;;;;;;;;5052985;28;20111;-69
2022/08/14 00:42:51;;;;;;;13.07;10.50;;;;;;;;;;5052812;28;20100;-70
2022/08/14 00:45:17;;;;;;;12.48;10.07;;;;;;;;;;5052785;28;20071;-71
2022/08/14 00:47:45;;;;;;;11.30;9.90;;;;;;;;;;5053054;28;20017;-70
2022/08/14 00:50:12;;;;;;;12.32;10.50;;;;;;;;;;5052718;28;20036;-69
2022/08/14 00:52:38;;;;;;;12.52;9.32;;;;;;;;;;5052967;28;20099;-69
2022/08/14 00:55:05;;;;;;;11.60;10.40;;;;;;;;;;5052519;28;20052;-70
2022/08/14 00:57:32;;;;;;;11.30;9.77;;;;;;;;;;5052931;28;20100;-69
2022/08/14 00:59:59;;;;;;;11.70;10.07;;;;;;;;;;5053073;28;20525;-69
2022/08/14 01:02:25;;;;;;;11.27;10.05;;;;;;;;;;5052585;28;20108;-70
2022/08/14 01:04:52;;;;;;;11.13;9.93;;;;;;;;;;5052568;28;20021;-70
2022/08/14 01:07:19;;;;;;;14.30;10.23;;;;;;;;;;5053095;28;20021;-69
2022/08/14 01:09:53;;;;;;;10.88;9.30;;;;;;;;;;5052832;28;20075;-69
2022/08/14 01:12:20;;;;;;;16.25;10.20;;;;;;;;;;5052825;28;20051;-71
2022/08/14 01:14:46;;;;;;;11.98;9.65;;;;;;;;;;5052552;28;20037;-71
2022/08/14 01:17:12;;;;;;;13.88;9.85;;;;;;;;;;5052503;28;20024;-69
2022/08/14 01:22:24;;;;;;;15.65;10.00;;;;;;;;;;5052187;28;20420;-71
2022/08/14 01:24:50;;;;;;;12.35;9.77;;;;;;;;;;5052767;28;20021;-69
2022/08/14 01:27:20;;;;;;;12.50;9.65;;;;;;;;;;5054554;28;20025;-70
2022/08/14 01:29:47;;;;;;;10.68;9.57;;;;;;;;;;5038647;28;20036;-69
2022/08/14 01:32:13;;;;;;;13.20;8.60;;;;;;;;;;5038021;28;20021;-70
2022/08/14 01:34:39;;;;;;;12.68;9.48;;;;;;;;;;5055925;28;20397;-70
2022/08/14 01:37:06;;;;;;;13.05;10.48;;;;;;;;;;5055826;28;20082;-69
2022/08/14 01:39:32;;;;;;;12.95;9.50;;;;;;;;;;5055814;28;20029;-70
2022/08/14 01:41:59;;;;;;;11.73;9.57;;;;;;;;;;5055648;28;20028;-70
2022/08/14 01:44:29;;;;;;;11.00;9.70;;;;;;;;;;5055701;28;20051;-69
2022/08/14 01:46:56;;;;;;;14.20;9.85;;;;;;;;;;5055697;28;20485;-68
2022/08/14 01:49:22;;;;;;;12.88;9.68;;;;;;;;;;5055629;28;20020;-70
2022/08/14 01:51:53;;;;;;;13.30;10.05;;;;;;;;;;5055573;28;20036;-71
2022/08/14 01:54:20;;;;;;;13.23;10.35;;;;;;;;;;5055984;28;20049;-68
2022/08/14 01:56:47;;;;;;;13.63;10.05;;;;;;;;;;5037604;28;20021;-70
2022/08/14 01:59:25;;;;;;;12.73;9.70;;;;;;;;;;5055688;28;20543;-69
2022/08/14 02:01:52;;;;;;;11.75;10.38;;;;;;;;;;5055368;28;20501;-69
2022/08/14 02:04:19;;;;;;;12.63;10.48;;;;;;;;;;5055290;28;20485;-70
2022/08/14 02:06:46;;;;;;;12.32;10.57;;;;;;;;;;5055261;28;20013;-69
2022/08/14 02:09:12;;;;;;;12.23;10.27;;;;;;;;;;5055222;28;20029;-69
2022/08/14 02:11:38;;;;;;;14.82;9.95;;;;;;;;;;5055498;28;20075;-70
2022/08/14 02:14:06;;;;;;;14.88;8.85;;;;;;;;;;5055410;28;20108;-70
2022/08/14 02:16:37;;;;;;;13.73;9.65;;;;;;;;;;5055375;28;20025;-69
2022/08/14 02:19:04;;;;;;;13.13;9.07;;;;;;;;;;5055082;28;20025;-69
2022/08/14 02:21:31;;;;;;;14.52;9.43;;;;;;;;;;5055165;28;20389;-71
2022/08/14 02:24:00;;;;;;;13.52;9.40;;;;;;;;;;5054980;28;20017;-71
2022/08/14 02:26:27;;;;;;;12.25;8.70;;;;;;;;;;5054937;28;20025;-68
2022/08/14 02:28:58;;;;;;;12.57;9.48;;;;;;;;;;5054880;28;20025;-70
2022/08/14 02:31:24;;;;;;;13.25;10.02;;;;;;;;;;5055422;28;20449;-69
2022/08/14 02:33:50;;;;;;;17.20;10.63;;;;;;;;;;5054781;28;20108;-70
2022/08/14 02:36:16;;;;;;;23.90;13.32;;;;;;;;;;5054729;28;20155;-70
2022/08/14 02:38:42;;;;;;;17.90;11.07;;;;;;;;;;5054647;28;20029;-70
2022/08/14 02:41:10;;;;;;;15.63;11.77;;;;;;;;;;5054836;28;20021;-70
2022/08/14 02:43:37;;;;;;;16.90;12.40;;;;;;;;;;5036637;28;20048;-69
2022/08/14 02:46:03;;;;;;;16.45;13.02;;;;;;;;;;5055094;28;20028;-70
2022/08/14 02:48:35;;;;;;;15.23;13.60;;;;;;;;;;5054458;28;20444;-70
2022/08/14 02:51:06;;;;;;;17.17;13.15;;;;;;;;;;5036315;28;20033;-69
2022/08/14 02:53:32;;;;;;;18.60;13.82;;;;;;;;;;5054959;28;20466;-69
2022/08/14 02:55:58;;;;;;;14.95;13.40;;;;;;;;;;5074274;28;20040;-70
2022/08/14 02:58:25;;;;;;;18.95;13.70;;;;;;;;;;5073007;28;20035;-70
2022/08/14 03:00:53;;;;;;;16.80;13.43;;;;;;;;;;5074144;28;20060;-68
2022/08/14 03:03:22;;;;;;;17.90;13.93;;;;;;;;;;5074309;28;20380;-68
2022/08/14 03:05:50;;;;;;;18.50;13.52;;;;;;;;;;5074483;28;20108;-70
2022/08/14 03:08:17;;;;;;;18.00;13.68;;;;;;;;;;5074116;28;20031;-69
2022/08/14 03:10:44;;;;;;;22.15;13.35;;;;;;;;;;5074093;28;20029;-70
2022/08/14 03:13:11;;;;;;;19.20;13.40;;;;;;;;;;5074027;28;20020;-69
2022/08/14 03:15:39;;;;;;;20.20;12.95;;;;;;;;;;5073975;28;20081;-70
2022/08/14 03:18:09;;;;;;;15.63;13.30;;;;;;;;;;5074191;28;20389;-69
2022/08/14 03:20:35;;;;;;;13.82;12.02;;;;;;;;;;5073796;28;20099;-70
2022/08/14 03:23:01;;;;;;;20.08;13.57;;;;;;;;;;5073820;28;20058;-69
2022/08/14 03:25:32;;;;;;;14.85;13.02;;;;;;;;;;5073780;28;20029;-69
2022/08/14 03:28:02;;;;;;;14.73;12.15;;;;;;;;;;5074333;28;20016;-70
2022/08/14 03:30:29;;;;;;;15.43;11.93;;;;;;;;;;5074552;28;20103;-69
2022/08/14 03:32:56;;;;;;;14.82;11.63;;;;;;;;;;5072364;28;20031;-71
2022/08/14 03:35:22;;;;;;;16.05;12.70;;;;;;;;;;5072382;28;20024;-70
2022/08/14 03:37:51;;;;;;;14.65;11.25;;;;;;;;;;5073572;28;20029;-69
2022/08/14 03:40:17;;;;;;;15.13;12.13;;;;;;;;;;5073481;28;20023;-69
2022/08/14 03:42:43;;;;;;;13.85;12.05;;;;;;;;;;5072235;28;20401;-71
2022/08/14 03:45:09;;;;;;;17.50;12.80;;;;;;;;;;5073506;28;20031;-70
2022/08/14 03:47:39;;;;;;;16.65;12.93;;;;;;;;;;5073767;28;20048;-69
2022/08/14 03:50:08;;;;;;;16.52;12.65;;;;;;;;;;5071543;28;20436;-70
2022/08/14 03:52:34;;;;;;;15.82;12.20;;;;;;;;;;5073443;28;20020;-70
2022/08/14 03:55:02;;;;;;;16.50;12.77;;;;;;;;;;5061035;28;20417;-70
2022/08/14 03:57:31;;;;;;;14.55;11.63;;;;;;;;;;5053294;28;20021;-69
2022/08/14 03:59:58;;;;;;;15.90;13.00;;;;;;;;;;5035921;28;20052;-69
2022/08/14 04:02:24;;;;;;;14.88;12.68;;;;;;;;;;5053463;28;20031;-70
2022/08/14 04:04:52;;;;;;;15.00;12.00;;;;;;;;;;5053219;28;20032;-69
2022/08/14 04:07:18;;;;;;;13.15;11.68;;;;;;;;;;5053226;28;20386;-69
2022/08/14 04:09:44;;;;;;;17.25;12.70;;;;;;;;;;5035321;28;20021;-70
2022/08/14 04:12:11;;;;;;;18.38;13.65;;;;;;;;;;5053141;28;20036;-70
2022/08/14 04:14:37;;;;;;;14.80;12.07;;;;;;;;;;5053144;28;20055;-71
2022/08/14 04:17:03;;;;;;;16.55;12.43;;;;;;;;;;5053344;28;20031;-70
2022/08/14 04:19:29;;;;;;;14.65;12.70;;;;;;;;;;5053084;28;20029;-70
2022/08/14 04:21:55;;;;;;;17.05;12.35;;;;;;;;;;5052930;28;20021;-70
2022/08/14 04:24:21;;;;;;;15.48;13.80;;;;;;;;;;5053026;28;20025;-71
2022/08/14 04:26:47;;;;;;;16.20;14.00;;;;;;;;;;5052901;28;20383;-72
2022/08/14 04:29:13;;;;;;;19.02;14.93;;;;;;;;;;5052981;28;20029;-70
2022/08/14 04:31:39;;;;;;;18.65;15.30;;;;;;;;;;5035596;28;20025;-69
2022/08/14 04:34:06;;;;;;;20.00;14.88;;;;;;;;;;5052948;28;20031;-72
2022/08/14 04:43:34;;;;;;;17.05;14.18;;;;;;;;;;5052957;28;20025;-69
2022/08/14 04:44:47;;;;;;;16.67;14.07;;;;;;;;;;5052625;28;20100;-70
2022/08/14 04:49:58;;;;;;;15.93;13.70;;;;;;;;;;5053123;28;20036;-70
2022/08/14 04:52:24;;;;;;;16.92;14.15;;;;;;;;;;5052754;28;20036;-71
2022/08/14 04:54:50;;;;;;;18.73;13.20;;;;;;;;;;5052752;28;20049;-69
2022/08/14 04:57:16;;;;;;;16.27;12.27;;;;;;;;;;5052747;28;20021;-71
2022/08/14 04:59:42;;;;;;;14.95;11.18;;;;;;;;;;5052993;28;20108;-70
2022/08/14 05:02:08;;;;;;;15.45;12.25;;;;;;;;;;5055895;28;20424;-69
2022/08/14 05:04:34;;;;;;;18.10;12.57;;;;;;;;;;5056538;28;20025;-70
2022/08/14 05:07:00;;;;;;;16.00;12.48;;;;;;;;;;5056798;28;20111;-69
2022/08/14 05:09:26;;;;;;;16.35;12.05;;;;;;;;;;5056424;28;20096;-70
2022/08/14 05:11:52;;;;;;;14.50;11.75;;;;;;;;;;5056339;28;20027;-70
2022/08/14 05:14:21;;;;;;;12.95;11.45;;;;;;;;;;5056587;28;20079;-69
2022/08/14 05:16:47;;;;;;;15.80;12.90;;;;;;;;;;5056252;28;20489;-69
2022/08/14 05:19:13;;;;;;;13.32;10.82;;;;;;;;;;5056155;28;20107;-70
2022/08/14 05:21:40;;;;;;;15.63;12.27;;;;;;;;;;5056088;28;20025;-70
2022/08/14 05:24:06;;;;;;;16.73;12.90;;;;;;;;;;5056094;28;20065;-69
2022/08/14 05:26:32;;;;;;;14.68;13.02;;;;;;;;;;5056082;28;20022;-70
2022/08/14 05:28:58;;;;;;;16.85;13.20;;;;;;;;;;5038070;28;20033;-70
2022/08/14 05:31:24;;;;;;;17.15;13.73;;;;;;;;;;5056458;28;20370;-70
2022/08/14 05:33:50;;;;;;;16.85;13.70;;;;;;;;;;5056209;28;20115;-69
2022/08/14 05:36:16;;;;;;;17.20;14.38;;;;;;;;;;5038012;28;20028;-69
2022/08/14 05:38:46;;;;;;;16.77;13.70;;;;;;;;;;5055846;28;20029;-69
2022/08/14 05:41:17;;;;;;;15.75;12.75;;;;;;;;;;5056070;28;20056;-69
2022/08/14 05:43:44;;;;;;;18.98;14.70;;;;;;;;;;5056321;28;20025;-70
2022/08/14 05:46:11;;;;;;;17.88;14.07;;;;;;;;;;5055731;28;20021;-71
2022/08/14 05:48:37;;;;;;;17.25;13.82;;;;;;;;;;5055932;28;20017;-69
2022/08/14 05:51:03;;;;;;;18.67;15.18;;;;;;;;;;5055584;28;20082;-69
2022/08/14 05:53:29;;;;;;;20.48;14.85;;;;;;;;;;5055566;28;20033;-70
2022/08/14 05:55:57;;;;;;;17.42;14.57;;;;;;;;;;5055323;28;20133;-70
2022/08/14 05:58:24;;;;;;;21.70;15.73;;;;;;;;;;5037598;28;20037;-69
2022/08/14 06:00:50;;;;;;;22.95;15.68;;;;;;;;;;5055272;28;20025;-70
2022/08/14 06:03:18;;;;;;;21.67;16.73;;;;;;;;;;5055370;28;20021;-69
2022/08/14 06:05:45;;;;;;;22.05;16.17;;;;;;;;;;5055310;28;20029;-69
2022/08/14 06:08:19;;;;;;;20.90;15.85;;;;;;;;;;5055587;28;20017;-69
2022/08/14 06:10:46;;;;;;;18.88;16.02;;;;;;;;;;5055533;28;20504;-70
2022/08/14 06:13:12;;;;;;;19.77;15.77;;;;;;;;;;5054550;28;20032;-70
2022/08/14 06:15:38;;;;;;;20.20;15.88;;;;;;;;;;5055232;28;20052;-70
2022/08/14 06:18:05;;;;;;;19.70;14.32;;;;;;;;;;5055096;28;20104;-69
2022/08/14 06:20:31;;;;;;;18.33;15.23;;;;;;;;;;5055057;28;20036;-69
2022/08/14 06:22:57;;;;;;;19.85;14.73;;;;;;;;;;5055624;28;20373;-70
2022/08/14 06:25:23;;;;;;;17.27;14.95;;;;;;;;;;5054996;28;20025;-70
2022/08/14 06:27:50;;;;;;;16.23;14.18;;;;;;;;;;5054890;28;20508;-70
2022/08/14 06:30:17;;;;;;;18.95;14.88;;;;;;;;;;5054884;28;20032;-69
2022/08/14 06:32:44;;;;;;;21.45;15.95;;;;;;;;;;5055398;28;20075;-69
2022/08/14 06:35:13;;;;;;;20.30;16.02;;;;;;;;;;5055070;28;20029;-69
2022/08/14 06:37:44;;;;;;;19.70;15.55;;;;;;;;;;5054775;28;20452;-70
2022/08/14 06:40:11;;;;;;;18.75;13.98;;;;;;;;;;5054693;28;20493;-70
2022/08/14 06:42:37;;;;;;;16.95;14.55;;;;;;;;;;5054572;28;20512;-71
2022/08/14 06:45:04;;;;;;;19.08;14.88;;;;;;;;;;5054599;28;20107;-69
2022/08/14 06:47:33;;;;;;;19.38;15.45;;;;;;;;;;5036682;28;20409;-69
2022/08/14 06:49:59;;;;;;;16.90;14.88;;;;;;;;;;5036623;28;20025;-70
2022/08/14 06:52:25;;;;;;;18.52;14.45;;;;;;;;;;5054470;28;20033;-69
2022/08/14 06:54:51;;;;;;;19.58;15.80;;;;;;;;;;5054180;28;20386;-70
2022/08/14 06:57:17;;;;;;;18.42;14.35;;;;;;;;;;5054347;28;20036;-71
2022/08/14 06:59:43;;;;;;;16.88;15.07;;;;;;;;;;5054598;28;20032;-70
2022/08/14 07:07:40;;;;;;;18.38;15.88;;;;;;;;;;5054191;28;20409;-70
2022/08/14 07:10:06;;;;;;;18.70;16.65;;;;;;;;;;5054427;28;20021;-70
2022/08/14 07:12:32;;;;;;;18.63;15.38;;;;;;;;;;5036215;28;20433;-69
2022/08/14 07:14:58;;;;;;;19.67;15.82;;;;;;;;;;5054050;28;20025;-68
2022/08/14 07:17:25;;;;;;;19.00;15.32;;;;;;;;;;5054304;28;20045;-70
2022/08/14 07:19:51;;;;;;;18.75;15.57;;;;;;;;;;5053976;28;20500;-70
2022/08/14 07:22:17;;;;;;;17.63;14.23;;;;;;;;;;5053810;28;20025;-70
2022/08/14 07:24:43;;;;;;;17.20;13.45;;;;;;;;;;5053493;28;20028;-69
2022/08/14 07:27:09;;;;;;;19.17;14.88;;;;;;;;;;5053831;28;20025;-70
2022/08/14 07:29:35;;;;;;;16.45;13.57;;;;;;;;;;5053699;28;20063;-71
2022/08/14 07:32:01;;;;;;;13.73;11.55;;;;;;;;;;5054255;28;20025;-69
2022/08/14 07:34:27;;;;;;;15.50;12.07;;;;;;;;;;5053688;28;20520;-70
2022/08/14 07:36:54;;;;;;;13.02;10.98;;;;;;;;;;5053670;28;20482;-69
2022/08/14 07:39:20;;;;;;;14.00;11.45;;;;;;;;;;5035685;28;20560;-69
2022/08/14 07:41:47;;;;;;;14.77;11.18;;;;;;;;;;5053797;28;20412;-69
2022/08/14 07:44:13;;;;;;;17.30;10.93;;;;;;;;;;5053546;28;20028;-69
2022/08/14 07:46:41;;;;;;;17.58;12.00;;;;;;;;;;5053459;28;20496;-69
2022/08/14 07:49:08;;;;;;;15.25;11.82;;;;;;;;;;5053702;28;20099;-70
2022/08/14 07:51:34;;;;;;;16.52;13.57;;;;;;;;;;5053460;28;20408;-69
2022/08/14 07:54:00;;;;;;;18.05;13.55;;;;;;;;;;5053216;28;20101;-70
2022/08/14 07:56:27;;;;;;;15.68;12.30;;;;;;;;;;5053637;28;20024;-70
2022/08/14 07:58:53;;;;;;;16.50;13.73;;;;;;;;;;5053600;28;20504;-71
2022/08/14 08:01:19;;;;;;;17.92;13.98;;;;;;;;;;5053090;28;20075;-70
2022/08/14 08:03:49;;;;;;;19.35;15.63;;;;;;;;;;5053517;28;20025;-70
2022/08/14 08:06:15;;;;;;;19.90;16.42;;;;;;;;;;5035308;28;20039;-69
2022/08/14 08:08:46;;;;;;;20.42;16.33;;;;;;;;;;5053213;28;20104;-70
2022/08/14 08:11:11;;;;;;;;;;;;;;;;;;5053943;28;20029;-70
2022/08/14 08:13:41;;;;;;;20.88;16.45;;;;;;;;;;5035249;28;20444;-71
2022/08/14 08:16:07;;;;;;;20.10;16.23;;;;;;;;;;5053153;28;20029;-69
2022/08/14 08:18:33;;;;;;;20.83;16.88;;;;;;;;;;5053114;28;20025;-70
2022/08/14 08:21:00;;;;;;;19.42;15.73;;;;;;;;;;5053051;28;20036;-69
2022/08/14 08:23:28;;;;;;;20.60;15.93;;;;;;;;;;5053380;28;20381;-69
2022/08/14 08:25:57;;;;;;;21.00;16.52;;;;;;;;;;5053323;28;20040;-71
2022/08/14 08:28:25;;;;;;;21.75;16.85;;;;;;;;;;5053023;28;20017;-69
2022/08/14 08:30:53;;;;;;;22.10;17.83;;;;;;;;;;5054100;28;20029;-70
2022/08/14 08:33:19;;;;;;;20.52;16.00;;;;;;;;;;5053528;28;20045;-70
2022/08/14 08:35:46;;;;;;;17.52;15.40;;;;;;;;;;5054654;28;20029;-69
2022/08/14 08:38:14;;;;;;;18.88;14.05;;;;;;;;;;5057332;28;20392;-70
2022/08/14 08:40:47;;;;;;;18.17;14.80;;;;;;;;;;5038987;28;20503;-71
2022/08/14 08:43:23;;;;;;;18.23;14.00;;;;;;;;;;5056981;28;20018;-70
2022/08/14 08:45:55;;;;;;;18.50;14.95;;;;;;;;;;5057143;28;20066;-70
2022/08/14 08:48:21;;;;;;;19.27;14.27;;;;;;;;;;5057126;28;20017;-69
2022/08/14 08:50:48;;;;;;;21.63;14.93;;;;;;;;;;5057045;28;20036;-70
2022/08/14 08:53:14;;;;;;;18.58;15.70;;;;;;;;;;5056739;28;20503;-69
2022/08/14 08:55:41;;;;;;;19.48;16.55;;;;;;;;;;5056277;28;20464;-71
2022/08/14 08:58:09;;;;;;;19.27;15.40;;;;;;;;;;5056652;28;20500;-69
2022/08/14 09:00:36;;;;;;;18.63;14.32;;;;;;;;;;5056459;28;20094;-70
2022/08/14 09:03:04;;;;;;;17.42;13.65;;;;;;;;;;5056854;28;20017;-70
2022/08/14 09:05:31;;;;;;;18.25;15.68;;;;;;;;;;5057081;28;20031;-70
2022/08/14 09:08:20;;;;;;;19.33;13.25;;;;;;;;;;5056480;28;20107;-68
2022/08/14 09:10:46;;;;;;;15.65;12.57;;;;;;;;;;5049158;28;20045;-70
2022/08/14 09:13:14;;;;;;;16.75;13.10;;;;;;;;;;5056351;28;20017;-69
2022/08/14 09:15:40;;;;;;;23.50;13.93;;;;;;;;;;5056337;28;20020;-69
2022/08/14 09:18:07;;;;;;;15.48;12.95;;;;;;;;;;5056266;28;20362;-70
2022/08/14 09:20:33;;;;;;;16.17;12.80;;;;;;;;;;5038253;28;20029;-70
2022/08/14 09:23:00;;;;;;;18.48;13.10;;;;;;;;;;5056128;28;20028;-70
2022/08/14 09:25:26;;;;;;;17.73;14.30;;;;;;;;;;5056058;28;20390;-70
2022/08/14 09:27:52;;;;;;;18.45;13.38;;;;;;;;;;5056114;28;20045;-70
2022/08/14 09:30:18;;;;;;;17.05;14.07;;;;;;;;;;5038152;28;20037;-71
2022/08/14 09:33:02;;;;;;;21.27;13.77;;;;;;;;;;5056540;28;20103;-70
2022/08/14 09:35:32;;;;;;;19.10;13.18;;;;;;;;;;5056219;28;20051;-69
2022/08/14 09:38:06;;;;;;;16.08;13.40;;;;;;;;;;5056174;28;20489;-69
2022/08/14 09:40:54;;;;;;;16.45;13.20;;;;;;;;;;5056047;28;20500;-70
2022/08/14 09:43:23;;;;;;;17.05;13.85;;;;;;;;;;5056119;28;20132;-69
2022/08/14 09:45:49;;;;;;;16.52;13.27;;;;;;;;;;5056040;28;20052;-71
2022/08/14 09:48:17;;;;;;;15.20;12.40;;;;;;;;;;5054707;28;20029;-70
2022/08/14 09:50:45;;;;;;;21.50;12.82;;;;;;;;;;5055906;28;20067;-70
2022/08/14 09:53:15;;;;;;;18.05;13.85;;;;;;;;;;5055641;28;20017;-68
2022/08/14 09:55:41;;;;;;;15.20;12.77;;;;;;;;;;5069412;28;20048;-69
2022/08/14 09:58:10;;;;;;;19.02;13.23;;;;;;;;;;5074244;28;20050;-69
2022/08/14 10:00:53;;;;;;;15.18;11.90;;;;;;;;;;5075571;28;20017;-70
2022/08/14 10:03:29;;;;;;;15.18;11.98;;;;;;;;;;5075976;28;20013;-69
2022/08/14 10:06:18;;;;;;;13.70;11.05;;;;;;;;;;5075367;28;20029;-69
2022/08/14 10:08:49;;;;;;;14.90;11.68;;;;;;;;;;5075932;28;20020;-70
2022/08/14 10:11:20;;;;;;;14.55;11.65;;;;;;;;;;5075887;28;20024;-69
2022/08/14 10:13:47;;;;;;;13.90;11.18;;;;;;;;;;5075246;28;20473;-69
2022/08/14 10:16:14;;;;;;;16.58;10.57;;;;;;;;;;5075548;28;20497;-71
2022/08/14 10:18:40;;;;;;;20.83;11.10;;;;;;;;;;5075243;28;20025;-70
2022/08/14 10:21:08;;;;;;;13.15;10.85;;;;;;;;;;5075043;28;20032;-70
2022/08/14 10:23:42;;;;;;;13.45;9.60;;;;;;;;;;5075043;28;20040;-70
2022/08/14 10:26:08;;;;;;;14.85;9.77;;;;;;;;;;5075271;28;20020;-69
2022/08/14 10:28:41;;;;;;;13.05;9.77;;;;;;;;;;5074968;28;20498;-70
2022/08/14 10:31:24;;;;;;;14.00;10.40;;;;;;;;;;5075922;28;20032;-69
2022/08/14 10:34:02;;;;;;;13.63;10.10;;;;;;;;;;5075413;28;20032;-69
2022/08/14 10:36:38;;;;;;;12.48;9.52;;;;;;;;;;5075325;28;20024;-70
2022/08/14 10:39:06;;;;;;;13.77;11.05;;;;;;;;;;5075077;28;20107;-70
2022/08/14 10:41:38;;;;;;;14.93;10.15;;;;;;;;;;5074599;28;20071;-71
2022/08/14 10:44:07;;;;;;;13.77;11.95;;;;;;;;;;5074922;28;20028;-71
2022/08/14 10:46:45;;;;;;;14.23;11.07;;;;;;;;;;5074656;28;20096;-71
2022/08/14 10:49:22;;;;;;;13.00;11.57;;;;;;;;;;5075108;28;20027;-69
2022/08/14 10:52:02;;;;;;;14.38;10.88;;;;;;;;;;5074789;28;20056;-68
2022/08/14 10:54:30;;;;;;;17.95;12.52;;;;;;;;;;5072771;28;20052;-69
2022/08/14 10:56:56;;;;;;;15.25;11.85;;;;;;;;;;5074303;28;20028;-70
2022/08/14 10:59:23;;;;;;;14.57;12.30;;;;;;;;;;5074049;28;20392;-69
2022/08/14 11:01:49;;;;;;;14.77;12.10;;;;;;;;;;5072898;28;20021;-70
2022/08/14 11:04:27;;;;;;;13.05;11.70;;;;;;;;;;5074519;28;20033;-71
2022/08/14 11:06:55;;;;;;;16.17;13.52;;;;;;;;;;5074145;28;20052;-72
2022/08/14 11:09:21;;;;;;;16.50;13.18;;;;;;;;;;5072914;28;20378;-69
2022/08/14 11:11:54;;;;;;;16.40;12.98;;;;;;;;;;5074095;28;20036;-70
2022/08/14 11:14:20;;;;;;;14.52;12.02;;;;;;;;;;5074374;28;20047;-71
2022/08/14 11:16:47;;;;;;;16.15;12.82;;;;;;;;;;5074096;28;20025;-71
2022/08/14 11:19:13;;;;;;;17.52;12.70;;;;;;;;;;5072670;28;20396;-69
2022/08/14 11:21:41;;;;;;;13.50;12.10;;;;;;;;;;5073821;28;20028;-70
2022/08/14 11:24:11;;;;;;;15.18;11.93;;;;;;;;;;5073880;28;20473;-71
2022/08/14 11:26:38;;;;;;;12.82;10.95;;;;;;;;;;5072633;28;20031;-69
2022/08/14 11:29:04;;;;;;;14.25;11.93;;;;;;;;;;5073814;28;20012;-70
2022/08/14 11:31:32;;;;;;;14.48;12.88;;;;;;;;;;5074790;28;20025;-69
2022/08/14 11:33:58;;;;;;;16.55;13.02;;;;;;;;;;5073926;28;20047;-70
2022/08/14 11:36:27;;;;;;;13.77;11.68;;;;;;;;;;5073938;28;20035;-70
2022/08/14 11:38:53;;;;;;;15.80;12.15;;;;;;;;;;5073696;28;20027;-69
2022/08/14 11:41:19;;;;;;;13.95;12.05;;;;;;;;;;5073524;28;20074;-70
2022/08/14 11:43:47;;;;;;;14.73;11.85;;;;;;;;;;5073506;28;20063;-69
2022/08/14 11:46:15;;;;;;;16.40;12.63;;;;;;;;;;5073510;28;20104;-70
2022/08/14 11:49:00;;;;;;;15.85;11.90;;;;;;;;;;5073490;28;20020;-70
2022/08/14 11:51:27;;;;;;;13.63;11.82;;;;;;;;;;5071917;28;20032;-69
2022/08/14 11:53:56;;;;;;;13.48;11.88;;;;;;;;;;5070662;28;20080;-70
2022/08/14 11:56:24;;;;;;;13.97;11.57;;;;;;;;;;5035553;28;20404;-70
2022/08/14 11:58:52;;;;;;;14.88;12.02;;;;;;;;;;5053331;28;20655;-69
2022/08/14 12:01:25;;;;;;;16.23;13.18;;;;;;;;;;5053163;28;20094;-71
2022/08/14 12:03:52;;;;;;;16.00;12.15;;;;;;;;;;5053921;28;20021;-70
2022/08/14 12:06:18;;;;;;;16.05;12.23;;;;;;;;;;5053485;28;20363;-70
2022/08/14 12:08:52;;;;;;;14.90;12.32;;;;;;;;;;5053220;28;20025;-70
2022/08/14 12:11:18;;;;;;;15.60;12.05;;;;;;;;;;5053198;28;20422;-69
2022/08/14 12:13:44;;;;;;;14.18;12.57;;;;;;;;;;5053163;28;20025;-70
2022/08/14 12:16:12;;;;;;;13.43;12.02;;;;;;;;;;5053163;28;20063;-70
2022/08/14 12:18:39;;;;;;;14.88;12.35;;;;;;;;;;5053147;28;20516;-69
2022/08/14 12:21:12;;;;;;;16.13;12.80;;;;;;;;;;5053313;28;20516;-70
2022/08/14 12:23:39;;;;;;;14.40;11.93;;;;;;;;;;5053639;28;20017;-69
2022/08/14 12:26:06;;;;;;;18.08;13.45;;;;;;;;;;5053080;28;20047;-71
2022/08/14 12:28:32;;;;;;;16.95;11.73;;;;;;;;;;5053339;28;20376;-71
2022/08/14 12:30:58;;;;;;;15.88;10.10;;;;;;;;;;5052985;28;20033;-69
2022/08/14 12:33:29;;;;;;;15.00;11.82;;;;;;;;;;5053788;28;20025;-70
2022/08/14 12:35:57;;;;;;;16.15;10.68;;;;;;;;;;5035118;28;20087;-70
2022/08/14 12:38:42;;;;;;;13.07;10.65;;;;;;;;;;5053266;28;20052;-69
2022/08/14 12:41:09;;;;;;;13.85;10.27;;;;;;;;;;5053141;28;20037;-70
2022/08/14 12:43:46;;;;;;;13.10;10.40;;;;;;;;;;5052884;28;20091;-69
2022/08/14 12:46:21;;;;;;;14.05;10.40;;;;;;;;;;5053151;28;20358;-69
2022/08/14 12:48:47;;;;;;;12.85;9.52;;;;;;;;;;5053171;28;20028;-69
2022/08/14 12:51:17;;;;;;;13.57;9.57;;;;;;;;;;5053352;28;20108;-69
2022/08/14 12:53:43;;;;;;;11.80;9.88;;;;;;;;;;5053141;28;20380;-71
2022/08/14 12:56:11;;;;;;;14.50;10.35;;;;;;;;;;5052797;28;20037;-68
2022/08/14 12:58:39;;;;;;;15.52;9.90;;;;;;;;;;5034880;28;20493;-69
2022/08/14 13:01:05;;;;;;;10.50;8.35;;;;;;;;;;5052597;28;20029;-69
2022/08/14 13:03:31;;;;;;;14.40;10.20;;;;;;;;;;5053204;28;20064;-69
2022/08/14 13:05:57;;;;;;;12.88;9.30;;;;;;;;;;5052934;28;20017;-69
2022/08/14 13:08:24;;;;;;;13.23;9.50;;;;;;;;;;5052646;28;20456;-69
2022/08/14 13:10:52;;;;;;;11.23;8.65;;;;;;;;;;5052943;28;20488;-69
2022/08/14 13:13:19;;;;;;;10.75;8.25;;;;;;;;;;5052658;28;20021;-70
2022/08/14 13:15:46;;;;;;;10.10;8.05;;;;;;;;;;5052630;28;20040;-70
2022/08/14 13:18:14;;;;;;;13.15;7.07;;;;;;;;;;5052578;28;20036;-69
2022/08/14 13:20:40;;;;;;;9.15;6.32;;;;;;;;;;5052470;28;20491;-70
2022/08/14 13:23:08;;;;;;;11.50;9.25;;;;;;;;;;5055601;28;20023;-71
2022/08/14 13:25:39;;;;;;;12.70;10.70;;;;;;;;;;5056421;28;20041;-69
2022/08/14 13:28:05;;;;;;;16.13;11.77;;;;;;;;;;5056427;28;20082;-69
2022/08/14 13:30:32;;;;;;;11.95;10.45;;;;;;;;;;5056594;28;20021;-70
2022/08/14 13:32:58;;;;;;;12.15;10.05;;;;;;;;;;5056760;28;20100;-69
2022/08/14 13:35:25;;;;;;;15.80;11.20;;;;;;;;;;5056014;28;20385;-70
2022/08/14 13:37:52;;;;;;;13.38;9.98;;;;;;;;;;5055901;28;20029;-70
2022/08/14 13:40:19;;;;;;;17.08;10.23;;;;;;;;;;5056125;28;20040;-70
2022/08/14 13:42:46;;;;;;;12.50;11.18;;;;;;;;;;5055973;28;20457;-70
2022/08/14 13:45:13;;;;;;;14.80;11.75;;;;;;;;;;5055786;28;20543;-69
2022/08/14 13:47:40;;;;;;;16.63;11.50;;;;;;;;;;5055736;28;20021;-71
2022/08/14 13:50:08;;;;;;;12.45;10.13;;;;;;;;;;5055966;28;20028;-68
2022/08/14 13:52:39;;;;;;;15.32;10.57;;;;;;;;;;5055939;28;20470;-70
2022/08/14 13:55:05;;;;;;;15.40;12.98;;;;;;;;;;5055538;28;20536;-69
2022/08/14 13:57:35;;;;;;;14.93;12.40;;;;;;;;;;5055808;28;20036;-70
2022/08/14 14:00:10;;;;;;;14.27;11.98;;;;;;;;;;5055451;28;20021;-69
2022/08/14 14:02:38;;;;;;;17.52;13.30;;;;;;;;;;5037241;28;20032;-69
2022/08/14 14:05:04;;;;;;;13.90;10.75;;;;;;;;;;5055406;28;20021;-69
2022/08/14 14:07:32;;;;;;;17.35;11.70;;;;;;;;;;5055257;28;20024;-70
2022/08/14 14:10:00;;;;;;;13.82;11.20;;;;;;;;;;5055882;28;20025;-70
2022/08/14 14:12:27;;;;;;;16.17;12.30;;;;;;;;;;5055778;28;20095;-71
2022/08/14 14:14:53;;;;;;;17.70;13.50;;;;;;;;;;5055229;28;20032;-69
2022/08/14 14:17:23;;;;;;;15.73;13.55;;;;;;;;;;5055496;28;20075;-69
2022/08/14 14:19:49;;;;;;;16.75;12.80;;;;;;;;;;5055465;28;20074;-70
2022/08/14 14:22:15;;;;;;;16.70;13.80;;;;;;;;;;5055167;28;20393;-70
2022/08/14 14:24:42;;;;;;;16.55;14.35;;;;;;;;;;5055092;28;20028;-70
2022/08/14 14:27:08;;;;;;;15.98;12.95;;;;;;;;;;5055298;28;20047;-68
2022/08/14 14:29:35;;;;;;;17.55;13.55;;;;;;;;;;5055269;28;20147;-70
2022/08/14 14:32:01;;;;;;;15.10;12.23;;;;;;;;;;5055464;28;20075;-69
2022/08/14 14:34:29;;;;;;;19.00;12.77;;;;;;;;;;5054950;28;20028;-69
2022/08/14 14:36:56;;;;;;;14.73;13.10;;;;;;;;;;5055178;28;20033;-70
2022/08/14 14:39:27;;;;;;;16.23;11.85;;;;;;;;;;5055368;28;20401;-69
2022/08/14 14:41:54;;;;;;;13.38;10.50;;;;;;;;;;5054675;28;20033;-70